Terminal Aerodrome Forecast
Issued by NWS Lake Charles, LA

Home | Current Version | Previous Version | Text Only | Print | Product List | Glossary On
Versions: 1 2 3 4 5 6 7 8 9 10 11 12 13 14 15 16 17 18
587
FTUS44 KLCH 230520
TAFLCH
TAF
KLCH 230520Z 2306/2406 VRB05KT P6SM FEW250
      TEMPO 2306/2309 5SM BR
     FM230900 VRB03KT P6SM SKC
      TEMPO 2309/2313 3SM BR
     FM231500 34009KT P6SM SKC=

USA.gov is the U.S. government's official web portal to all federal, state and local government web resources and services.